sensor_id;sensor_type;location;lat;lon;timestamp;pressure;altitude;pressure_sealevel;temperature;humidity
34297;BME280;20564;42.902;25.336;2024-02-23T00:02:15;96927.78;;;6.16;78.75
34297;BME280;20564;42.902;25.336;2024-02-23T00:04:42;96913.78;;;6.06;78.30
34297;BME280;20564;42.902;25.336;2024-02-23T00:07:09;96908.56;;;6.06;79.42
34297;BME280;20564;42.902;25.336;2024-02-23T00:09:36;96893.13;;;6.02;79.43
34297;BME280;20564;42.902;25.336;2024-02-23T00:12:03;96899.66;;;5.97;79.90
34297;BME280;20564;42.902;25.336;2024-02-23T00:14:31;96908.75;;;5.91;80.39
34297;BME280;20564;42.902;25.336;2024-02-23T00:16:58;96903.09;;;5.97;81.03
34297;BME280;20564;42.902;25.336;2024-02-23T00:19:25;96897.34;;;5.81;80.82
34297;BME280;20564;42.902;25.336;2024-02-23T00:21:52;96896.41;;;5.71;80.85
34297;BME280;20564;42.902;25.336;2024-02-23T00:24:20;96894.72;;;5.70;81.66
34297;BME280;20564;42.902;25.336;2024-02-23T00:26:48;96897.00;;;5.63;82.42
34297;BME280;20564;42.902;25.336;2024-02-23T00:29:15;96892.47;;;5.65;82.26
34297;BME280;20564;42.902;25.336;2024-02-23T00:31:42;96896.63;;;5.68;81.74
34297;BME280;20564;42.902;25.336;2024-02-23T00:34:09;96886.41;;;5.53;82.88
34297;BME280;20564;42.902;25.336;2024-02-23T00:36:40;96877.75;;;5.53;81.58
34297;BME280;20564;42.902;25.336;2024-02-23T00:39:07;96883.28;;;5.37;82.50
34297;BME280;20564;42.902;25.336;2024-02-23T00:41:35;96881.25;;;5.29;83.24
34297;BME280;20564;42.902;25.336;2024-02-23T00:44:05;96875.22;;;5.29;83.84
34297;BME280;20564;42.902;25.336;2024-02-23T00:46:32;96882.22;;;5.28;82.96
34297;BME280;20564;42.902;25.336;2024-02-23T00:49:00;96880.66;;;5.26;83.88
34297;BME280;20564;42.902;25.336;2024-02-23T00:51:27;96872.34;;;5.21;84.29
34297;BME280;20564;42.902;25.336;2024-02-23T00:53:54;96871.28;;;5.23;84.78
34297;BME280;20564;42.902;25.336;2024-02-23T00:56:21;96870.69;;;5.20;85.05
34297;BME280;20564;42.902;25.336;2024-02-23T00:58:58;96869.00;;;5.19;85.32
34297;BME280;20564;42.902;25.336;2024-02-23T01:01:25;96861.66;;;5.13;86.16
34297;BME280;20564;42.902;25.336;2024-02-23T01:03:53;96875.91;;;5.20;86.08
34297;BME280;20564;42.902;25.336;2024-02-23T01:06:20;96859.06;;;5.13;85.59
34297;BME280;20564;42.902;25.336;2024-02-23T01:08:48;96862.59;;;5.12;87.50
34297;BME280;20564;42.902;25.336;2024-02-23T01:11:14;96865.47;;;5.20;87.40
34297;BME280;20564;42.902;25.336;2024-02-23T01:13:41;96857.97;;;5.15;87.01
34297;BME280;20564;42.902;25.336;2024-02-23T01:16:08;96852.66;;;5.17;87.14
34297;BME280;20564;42.902;25.336;2024-02-23T01:18:35;96856.69;;;5.21;86.88
34297;BME280;20564;42.902;25.336;2024-02-23T01:21:03;96860.97;;;5.22;87.82
34297;BME280;20564;42.902;25.336;2024-02-23T01:23:29;96856.47;;;5.24;87.56
34297;BME280;20564;42.902;25.336;2024-02-23T01:25:56;96851.94;;;5.26;87.00
34297;BME280;20564;42.902;25.336;2024-02-23T01:28:25;96848.50;;;5.25;86.28
34297;BME280;20564;42.902;25.336;2024-02-23T01:30:52;96846.84;;;5.24;86.60
34297;BME280;20564;42.902;25.336;2024-02-23T01:33:19;96843.41;;;5.24;86.97
34297;BME280;20564;42.902;25.336;2024-02-23T01:35:46;96849.94;;;5.29;86.54
34297;BME280;20564;42.902;25.336;2024-02-23T01:38:13;96848.63;;;5.24;87.68
34297;BME280;20564;42.902;25.336;2024-02-23T01:40:47;96847.09;;;5.21;87.93
34297;BME280;20564;42.902;25.336;2024-02-23T01:43:14;96847.91;;;5.22;87.10
34297;BME280;20564;42.902;25.336;2024-02-23T01:45:41;96842.91;;;5.19;88.29
34297;BME280;20564;42.902;25.336;2024-02-23T01:48:08;96841.41;;;5.16;88.29
34297;BME280;20564;42.902;25.336;2024-02-23T01:50:36;96839.63;;;5.17;86.84
34297;BME280;20564;42.902;25.336;2024-02-23T01:53:04;96829.03;;;5.18;86.98
34297;BME280;20564;42.902;25.336;2024-02-23T01:55:31;96839.63;;;5.17;87.09
34297;BME280;20564;42.902;25.336;2024-02-23T01:58:04;96841.97;;;5.08;87.33
34297;BME280;20564;42.902;25.336;2024-02-23T02:00:35;96832.47;;;5.07;88.44
34297;BME280;20564;42.902;25.336;2024-02-23T02:03:04;96840.16;;;4.98;87.89
34297;BME280;20564;42.902;25.336;2024-02-23T02:05:36;96836.44;;;4.89;88.35
34297;BME280;20564;42.902;25.336;2024-02-23T02:08:04;96838.34;;;4.87;88.06
34297;BME280;20564;42.902;25.336;2024-02-23T02:10:31;96839.97;;;4.77;89.81
34297;BME280;20564;42.902;25.336;2024-02-23T02:13:02;96846.34;;;4.73;89.15
34297;BME280;20564;42.902;25.336;2024-02-23T02:15:30;96839.41;;;4.60;90.28
34297;BME280;20564;42.902;25.336;2024-02-23T02:17:57;96846.31;;;4.62;90.06
34297;BME280;20564;42.902;25.336;2024-02-23T02:20:24;96841.03;;;4.50;90.42
34297;BME280;20564;42.902;25.336;2024-02-23T02:22:52;96839.81;;;4.43;90.12
34297;BME280;20564;42.902;25.336;2024-02-23T02:25:19;96846.69;;;4.44;89.69
34297;BME280;20564;42.902;25.336;2024-02-23T02:27:46;96850.91;;;4.34;90.02
34297;BME280;20564;42.902;25.336;2024-02-23T02:30:14;96849.44;;;4.30;90.68
34297;BME280;20564;42.902;25.336;2024-02-23T02:32:41;96841.16;;;4.25;90.60
34297;BME280;20564;42.902;25.336;2024-02-23T02:35:10;96846.56;;;4.22;92.10
34297;BME280;20564;42.902;25.336;2024-02-23T02:37:37;96855.75;;;4.15;91.61
34297;BME280;20564;42.902;25.336;2024-02-23T02:40:05;96846.50;;;4.10;91.51
34297;BME280;20564;42.902;25.336;2024-02-23T02:42:33;96854.84;;;4.03;92.37
34297;BME280;20564;42.902;25.336;2024-02-23T02:45:00;96855.41;;;3.95;92.58
34297;BME280;20564;42.902;25.336;2024-02-23T02:47:27;96855.28;;;3.97;93.52
34297;BME280;20564;42.902;25.336;2024-02-23T02:49:54;96845.81;;;3.83;93.18
34297;BME280;20564;42.902;25.336;2024-02-23T02:52:21;96853.31;;;3.87;93.69
34297;BME280;20564;42.902;25.336;2024-02-23T02:54:50;96857.19;;;3.82;93.51
34297;BME280;20564;42.902;25.336;2024-02-23T02:57:17;96851.69;;;3.74;93.08
34297;BME280;20564;42.902;25.336;2024-02-23T02:59:44;96858.56;;;3.75;93.87
34297;BME280;20564;42.902;25.336;2024-02-23T03:02:12;96847.09;;;3.65;93.68
34297;BME280;20564;42.902;25.336;2024-02-23T03:04:39;96852.31;;;3.65;94.17
34297;BME280;20564;42.902;25.336;2024-02-23T03:07:13;96845.84;;;3.57;95.78
34297;BME280;20564;42.902;25.336;2024-02-23T03:09:39;96850.75;;;3.49;95.89
34297;BME280;20564;42.902;25.336;2024-02-23T03:12:06;96852.13;;;3.42;95.39
34297;BME280;20564;42.902;25.336;2024-02-23T03:14:33;96858.56;;;3.49;96.52
34297;BME280;20564;42.902;25.336;2024-02-23T03:17:04;96862.53;;;3.42;95.95
34297;BME280;20564;42.902;25.336;2024-02-23T03:19:31;96855.88;;;3.38;95.34
34297;BME280;20564;42.902;25.336;2024-02-23T03:21:59;96872.81;;;3.44;96.76
34297;BME280;20564;42.902;25.336;2024-02-23T03:24:26;96857.53;;;3.39;95.95
34297;BME280;20564;42.902;25.336;2024-02-23T03:26:53;96871.88;;;3.32;95.94
34297;BME280;20564;42.902;25.336;2024-02-23T03:29:20;96864.81;;;3.34;96.52
34297;BME280;20564;42.902;25.336;2024-02-23T03:31:51;96862.09;;;3.23;96.17
34297;BME280;20564;42.902;25.336;2024-02-23T03:34:18;96856.28;;;3.19;97.32
34297;BME280;20564;42.902;25.336;2024-02-23T03:36:45;96860.84;;;3.16;97.03
34297;BME280;20564;42.902;25.336;2024-02-23T03:39:12;96856.88;;;3.10;97.48
34297;BME280;20564;42.902;25.336;2024-02-23T03:41:38;96853.13;;;3.01;97.23
34297;BME280;20564;42.902;25.336;2024-02-23T03:44:05;96873.75;;;3.04;98.28
34297;BME280;20564;42.902;25.336;2024-02-23T03:46:32;96871.53;;;2.98;96.83
34297;BME280;20564;42.902;25.336;2024-02-23T03:48:59;96865.47;;;2.85;98.21
34297;BME280;20564;42.902;25.336;2024-02-23T03:51:26;96864.34;;;2.89;98.12
34297;BME280;20564;42.902;25.336;2024-02-23T03:53:53;96858.72;;;2.82;98.45
34297;BME280;20564;42.902;25.336;2024-02-23T03:56:20;96862.84;;;2.72;99.75
34297;BME280;20564;42.902;25.336;2024-02-23T03:58:47;96866.66;;;2.66;99.22
34297;BME280;20564;42.902;25.336;2024-02-23T04:01:14;96868.84;;;2.60;99.28
34297;BME280;20564;42.902;25.336;2024-02-23T04:03:41;96875.50;;;2.64;100.00
34297;BME280;20564;42.902;25.336;2024-02-23T04:06:08;96883.19;;;2.65;100.00
34297;BME280;20564;42.902;25.336;2024-02-23T04:08:35;96872.09;;;2.63;99.80
34297;BME280;20564;42.902;25.336;2024-02-23T04:11:03;96860.63;;;2.53;99.78
34297;BME280;20564;42.902;25.336;2024-02-23T04:13:29;96867.78;;;2.62;100.00
34297;BME280;20564;42.902;25.336;2024-02-23T04:15:56;96872.34;;;2.59;100.00
34297;BME280;20564;42.902;25.336;2024-02-23T04:18:24;96868.59;;;2.50;100.00
34297;BME280;20564;42.902;25.336;2024-02-23T04:20:50;96866.53;;;2.55;100.00
34297;BME280;20564;42.902;25.336;2024-02-23T04:23:17;96865.94;;;2.64;100.00
34297;BME280;20564;42.902;25.336;2024-02-23T04:25:44;96859.66;;;2.54;100.00
34297;BME280;20564;42.902;25.336;2024-02-23T04:28:11;96857.81;;;2.56;100.00
34297;BME280;20564;42.902;25.336;2024-02-23T04:30:38;96856.25;;;2.54;100.00
34297;BME280;20564;42.902;25.336;2024-02-23T04:33:05;96860.75;;;2.64;100.00
34297;BME280;20564;42.902;25.336;2024-02-23T04:35:32;96855.94;;;2.58;100.00
34297;BME280;20564;42.902;25.336;2024-02-23T04:37:58;96864.38;;;2.62;100.00
34297;BME280;20564;42.902;25.336;2024-02-23T04:40:25;96865.31;;;2.61;100.00
34297;BME280;20564;42.902;25.336;2024-02-23T04:42:52;96874.88;;;2.60;100.00
34297;BME280;20564;42.902;25.336;2024-02-23T04:45:19;96878.38;;;2.59;100.00
34297;BME280;20564;42.902;25.336;2024-02-23T04:47:46;96885.91;;;2.64;100.00
34297;BME280;20564;42.902;25.336;2024-02-23T04:50:14;96888.38;;;2.65;100.00
34297;BME280;20564;42.902;25.336;2024-02-23T04:52:41;96897.50;;;2.58;100.00
34297;BME280;20564;42.902;25.336;2024-02-23T04:55:08;96881.47;;;2.52;100.00
34297;BME280;20564;42.902;25.336;2024-02-23T04:57:36;96880.66;;;2.51;100.00
34297;BME280;20564;42.902;25.336;2024-02-23T05:00:04;96877.97;;;2.53;100.00
34297;BME280;20564;42.902;25.336;2024-02-23T05:02:31;96880.44;;;2.54;100.00
34297;BME280;20564;42.902;25.336;2024-02-23T05:05:03;96883.25;;;2.51;100.00
34297;BME280;20564;42.902;25.336;2024-02-23T05:07:31;96873.25;;;2.45;100.00
34297;BME280;20564;42.902;25.336;2024-02-23T05:09:59;96895.22;;;2.54;100.00
34297;BME280;20564;42.902;25.336;2024-02-23T05:12:25;96882.59;;;2.48;100.00
34297;BME280;20564;42.902;25.336;2024-02-23T05:14:52;96891.78;;;2.53;100.00
34297;BME280;20564;42.902;25.336;2024-02-23T05:17:19;96887.50;;;2.52;100.00
34297;BME280;20564;42.902;25.336;2024-02-23T05:19:46;96879.94;;;2.49;100.00
34297;BME280;20564;42.902;25.336;2024-02-23T05:22:13;96877.31;;;2.49;100.00
34297;BME280;20564;42.902;25.336;2024-02-23T05:24:40;96880.00;;;2.48;100.00
34297;BME280;20564;42.902;25.336;2024-02-23T05:27:06;96891.16;;;2.50;100.00
34297;BME280;20564;42.902;25.336;2024-02-23T05:29:33;96883.66;;;2.45;100.00
34297;BME280;20564;42.902;25.336;2024-02-23T05:32:00;96888.09;;;2.43;100.00
34297;BME280;20564;42.902;25.336;2024-02-23T05:34:27;96887.72;;;2.49;100.00
34297;BME280;20564;42.902;25.336;2024-02-23T05:36:54;96886.91;;;2.49;100.00
34297;BME280;20564;42.902;25.336;2024-02-23T05:39:21;96895.03;;;2.57;100.00
34297;BME280;20564;42.902;25.336;2024-02-23T05:41:47;96891.03;;;2.51;100.00
34297;BME280;20564;42.902;25.336;2024-02-23T05:44:14;96894.56;;;2.50;100.00
34297;BME280;20564;42.902;25.336;2024-02-23T05:46:42;96893.34;;;2.56;100.00
34297;BME280;20564;42.902;25.336;2024-02-23T05:49:09;96897.50;;;2.58;100.00
34297;BME280;20564;42.902;25.336;2024-02-23T05:51:36;96893.97;;;2.59;100.00
34297;BME280;20564;42.902;25.336;2024-02-23T05:54:03;96890.66;;;2.57;100.00
34297;BME280;20564;42.902;25.336;2024-02-23T05:56:30;96897.50;;;2.58;100.00
34297;BME280;20564;42.902;25.336;2024-02-23T05:58:57;96905.44;;;2.70;100.00
34297;BME280;20564;42.902;25.336;2024-02-23T06:01:24;96901.06;;;2.70;100.00
34297;BME280;20564;42.902;25.336;2024-02-23T06:03:50;96903.19;;;2.78;100.00
34297;BME280;20564;42.902;25.336;2024-02-23T06:06:17;96903.88;;;2.94;100.00
34297;BME280;20564;42.902;25.336;2024-02-23T06:08:45;96912.38;;;2.96;100.00
34297;BME280;20564;42.902;25.336;2024-02-23T06:11:12;96910.13;;;3.04;100.00
34297;BME280;20564;42.902;25.336;2024-02-23T06:13:39;96915.13;;;3.07;100.00
34297;BME280;20564;42.902;25.336;2024-02-23T06:16:10;96920.13;;;3.10;100.00
34297;BME280;20564;42.902;25.336;2024-02-23T06:18:38;96915.53;;;3.14;100.00
34297;BME280;20564;42.902;25.336;2024-02-23T06:21:14;96914.31;;;3.20;100.00
34297;BME280;20564;42.902;25.336;2024-02-23T06:23:42;96925.78;;;3.30;100.00
34297;BME280;20564;42.902;25.336;2024-02-23T06:26:09;96919.53;;;3.32;100.00
34297;BME280;20564;42.902;25.336;2024-02-23T06:28:36;96924.13;;;3.42;100.00
34297;BME280;20564;42.902;25.336;2024-02-23T06:31:08;96925.38;;;3.61;100.00
34297;BME280;20564;42.902;25.336;2024-02-23T06:33:35;96922.88;;;3.73;100.00
34297;BME280;20564;42.902;25.336;2024-02-23T06:36:03;96930.78;;;3.97;100.00
34297;BME280;20564;42.902;25.336;2024-02-23T06:38:31;96931.28;;;4.15;100.00
34297;BME280;20564;42.902;25.336;2024-02-23T06:40:57;96934.06;;;4.37;100.00
34297;BME280;20564;42.902;25.336;2024-02-23T06:43:24;96923.53;;;4.75;100.00
34297;BME280;20564;42.902;25.336;2024-02-23T06:45:51;96926.72;;;5.03;100.00
34297;BME280;20564;42.902;25.336;2024-02-23T06:48:18;96929.22;;;5.40;100.00
34297;BME280;20564;42.902;25.336;2024-02-23T06:50:45;96922.03;;;5.77;100.00
34297;BME280;20564;42.902;25.336;2024-02-23T06:53:12;96922.56;;;6.16;97.69
34297;BME280;20564;42.902;25.336;2024-02-23T06:55:39;96925.84;;;6.63;90.53
34297;BME280;20564;42.902;25.336;2024-02-23T06:58:06;96915.72;;;7.01;84.93
34297;BME280;20564;42.902;25.336;2024-02-23T07:00:34;96919.81;;;7.47;84.27
34297;BME280;20564;42.902;25.336;2024-02-23T07:03:02;96928.16;;;7.83;85.91
34297;BME280;20564;42.902;25.336;2024-02-23T07:05:31;96910.91;;;8.11;86.02
34297;BME280;20564;42.902;25.336;2024-02-23T07:07:58;96917.41;;;8.48;78.63
34297;BME280;20564;42.902;25.336;2024-02-23T07:10:26;96912.53;;;8.83;75.35
34297;BME280;20564;42.902;25.336;2024-02-23T07:12:53;96916.00;;;9.23;72.13
34297;BME280;20564;42.902;25.336;2024-02-23T07:15:20;96910.59;;;9.63;70.79
34297;BME280;20564;42.902;25.336;2024-02-23T07:17:47;96915.06;;;10.00;68.61
34297;BME280;20564;42.902;25.336;2024-02-23T07:20:14;96899.19;;;10.29;64.94
34297;BME280;20564;42.902;25.336;2024-02-23T07:22:44;96899.66;;;10.70;64.78
34297;BME280;20564;42.902;25.336;2024-02-23T07:25:16;96909.94;;;11.08;63.11
34297;BME280;20564;42.902;25.336;2024-02-23T07:27:44;96909.25;;;11.24;61.15
34297;BME280;20564;42.902;25.336;2024-02-23T07:30:12;96902.78;;;11.37;58.97
34297;BME280;20564;42.902;25.336;2024-02-23T07:32:39;96902.31;;;11.59;59.23
34297;BME280;20564;42.902;25.336;2024-02-23T07:35:07;96902.41;;;11.75;58.17
34297;BME280;20564;42.902;25.336;2024-02-23T07:37:34;96894.63;;;11.92;55.81
34297;BME280;20564;42.902;25.336;2024-02-23T07:40:01;96898.66;;;12.04;55.06
34297;BME280;20564;42.902;25.336;2024-02-23T07:42:30;96885.56;;;12.20;55.24
34297;BME280;20564;42.902;25.336;2024-02-23T07:44:59;96892.91;;;12.43;53.89
34297;BME280;20564;42.902;25.336;2024-02-23T07:47:26;96887.69;;;12.51;54.45
34297;BME280;20564;42.902;25.336;2024-02-23T07:49:54;96883.75;;;12.71;53.45
34297;BME280;20564;42.902;25.336;2024-02-23T07:52:21;96881.81;;;12.98;52.71
34297;BME280;20564;42.902;25.336;2024-02-23T07:54:53;96880.88;;;13.15;50.95
34297;BME280;20564;42.902;25.336;2024-02-23T07:57:21;96874.25;;;13.19;50.75
34297;BME280;20564;42.902;25.336;2024-02-23T07:59:48;96877.28;;;13.33;50.89
34297;BME280;20564;42.902;25.336;2024-02-23T08:02:15;96865.72;;;13.50;50.09
34297;BME280;20564;42.902;25.336;2024-02-23T08:04:42;96876.94;;;13.77;48.97
34297;BME280;20564;42.902;25.336;2024-02-23T08:07:09;96875.22;;;14.00;48.63
34297;BME280;20564;42.902;25.336;2024-02-23T08:09:37;96870.41;;;14.12;49.03
34297;BME280;20564;42.902;25.336;2024-02-23T08:12:04;96866.88;;;14.28;47.43
34297;BME280;20564;42.902;25.336;2024-02-23T08:14:31;96860.91;;;14.34;46.74
34297;BME280;20564;42.902;25.336;2024-02-23T08:16:58;96865.47;;;14.56;46.96
34297;BME280;20564;42.902;25.336;2024-02-23T08:19:25;96859.72;;;14.76;47.45
34297;BME280;20564;42.902;25.336;2024-02-23T08:21:52;96870.25;;;14.92;46.52
34297;BME280;20564;42.902;25.336;2024-02-23T08:24:18;96858.63;;;14.93;45.16
34297;BME280;20564;42.902;25.336;2024-02-23T08:26:45;96860.47;;;14.92;45.45
34297;BME280;20564;42.902;25.336;2024-02-23T08:29:12;96866.66;;;15.08;45.37
34297;BME280;20564;42.902;25.336;2024-02-23T08:31:39;96870.13;;;15.08;44.63
34297;BME280;20564;42.902;25.336;2024-02-23T08:34:08;96869.91;;;15.18;43.66
34297;BME280;20564;42.902;25.336;2024-02-23T08:36:35;96870.66;;;15.27;44.20
34297;BME280;20564;42.902;25.336;2024-02-23T08:39:02;96871.50;;;15.42;42.99
34297;BME280;20564;42.902;25.336;2024-02-23T08:41:29;96869.25;;;15.54;42.49
34297;BME280;20564;42.902;25.336;2024-02-23T08:43:57;96869.09;;;15.55;42.49
34297;BME280;20564;42.902;25.336;2024-02-23T08:46:24;96871.16;;;15.68;41.59
34297;BME280;20564;42.902;25.336;2024-02-23T08:48:50;96871.25;;;15.75;42.56
34297;BME280;20564;42.902;25.336;2024-02-23T08:51:17;96867.34;;;15.85;41.04
34297;BME280;20564;42.902;25.336;2024-02-23T08:53:44;96862.13;;;15.92;40.93
34297;BME280;20564;42.902;25.336;2024-02-23T08:56:12;96857.50;;;16.09;41.24
34297;BME280;20564;42.902;25.336;2024-02-23T08:58:39;96857.56;;;16.15;40.61
34297;BME280;20564;42.902;25.336;2024-02-23T09:01:06;96862.34;;;16.05;39.93
34297;BME280;20564;42.902;25.336;2024-02-23T09:03:32;96869.56;;;16.11;41.51
34297;BME280;20564;42.902;25.336;2024-02-23T09:05:59;96866.28;;;16.24;40.08
34297;BME280;20564;42.902;25.336;2024-02-23T09:08:27;96863.72;;;16.31;39.69
34297;BME280;20564;42.902;25.336;2024-02-23T09:10:53;96852.81;;;16.26;38.71
34297;BME280;20564;42.902;25.336;2024-02-23T09:13:21;96862.69;;;16.32;37.88
34297;BME280;20564;42.902;25.336;2024-02-23T09:15:47;96856.47;;;16.25;39.06
34297;BME280;20564;42.902;25.336;2024-02-23T09:18:14;96853.97;;;16.38;39.48
34297;BME280;20564;42.902;25.336;2024-02-23T09:20:41;96850.03;;;16.34;37.99
34297;BME280;20564;42.902;25.336;2024-02-23T09:23:08;96850.69;;;16.36;38.80
34297;BME280;20564;42.902;25.336;2024-02-23T09:25:35;96855.53;;;16.47;38.38
34297;BME280;20564;42.902;25.336;2024-02-23T09:28:02;96853.00;;;16.39;37.77
34297;BME280;20564;42.902;25.336;2024-02-23T09:30:29;96848.84;;;16.36;38.43
34297;BME280;20564;42.902;25.336;2024-02-23T09:32:56;96847.47;;;16.40;38.71
34297;BME280;20564;42.902;25.336;2024-02-23T09:35:23;96850.59;;;16.44;38.45
34297;BME280;20564;42.902;25.336;2024-02-23T09:37:50;96856.19;;;16.49;38.20
34297;BME280;20564;42.902;25.336;2024-02-23T09:40:17;96849.13;;;16.56;38.40
34297;BME280;20564;42.902;25.336;2024-02-23T09:42:50;96841.22;;;16.48;38.79
34297;BME280;20564;42.902;25.336;2024-02-23T09:45:19;96842.66;;;16.66;38.34
34297;BME280;20564;42.902;25.336;2024-02-23T09:47:47;96846.50;;;16.78;38.85
34297;BME280;20564;42.902;25.336;2024-02-23T09:50:15;96841.66;;;16.81;37.10
34297;BME280;20564;42.902;25.336;2024-02-23T09:52:45;96845.84;;;16.91;38.05
34297;BME280;20564;42.902;25.336;2024-02-23T09:55:13;96843.06;;;16.99;37.82
34297;BME280;20564;42.902;25.336;2024-02-23T09:57:40;96849.28;;;17.06;37.53
34297;BME280;20564;42.902;25.336;2024-02-23T10:00:09;96847.25;;;17.08;37.63
34297;BME280;20564;42.902;25.336;2024-02-23T10:02:36;96839.09;;;17.09;36.08
34297;BME280;20564;42.902;25.336;2024-02-23T10:05:03;96842.25;;;16.98;37.43
34297;BME280;20564;42.902;25.336;2024-02-23T10:07:30;96836.19;;;17.04;36.64
34297;BME280;20564;42.902;25.336;2024-02-23T10:09:58;96835.91;;;17.21;36.29
34297;BME280;20564;42.902;25.336;2024-02-23T10:12:24;96838.34;;;17.16;37.04
34297;BME280;20564;42.902;25.336;2024-02-23T10:14:52;96833.13;;;17.07;36.83
34297;BME280;20564;42.902;25.336;2024-02-23T10:17:20;96831.59;;;16.98;36.75
34297;BME280;20564;42.902;25.336;2024-02-23T10:19:47;96834.13;;;17.06;36.98
34297;BME280;20564;42.902;25.336;2024-02-23T10:22:14;96831.47;;;17.06;36.99
34297;BME280;20564;42.902;25.336;2024-02-23T10:24:42;96820.97;;;16.98;37.83
34297;BME280;20564;42.902;25.336;2024-02-23T10:27:09;96822.25;;;17.02;36.47
34297;BME280;20564;42.902;25.336;2024-02-23T10:29:36;96818.19;;;17.06;35.94
34297;BME280;20564;42.902;25.336;2024-02-23T10:32:04;96818.03;;;17.15;35.65
34297;BME280;20564;42.902;25.336;2024-02-23T10:34:34;96813.88;;;17.27;36.66
34297;BME280;20564;42.902;25.336;2024-02-23T10:37:05;96810.56;;;17.25;35.94
34297;BME280;20564;42.902;25.336;2024-02-23T10:39:36;96797.28;;;17.25;35.55
34297;BME280;20564;42.902;25.336;2024-02-23T10:42:04;96806.66;;;17.21;35.00
34297;BME280;20564;42.902;25.336;2024-02-23T10:44:35;96803.25;;;17.27;35.71
34297;BME280;20564;42.902;25.336;2024-02-23T10:47:04;96797.03;;;17.41;35.84
34297;BME280;20564;42.902;25.336;2024-02-23T10:49:31;96793.09;;;17.37;36.49
34297;BME280;20564;42.902;25.336;2024-02-23T10:52:00;96800.88;;;17.39;36.64
34297;BME280;20564;42.902;25.336;2024-02-23T10:54:29;96780.03;;;17.42;36.10
34297;BME280;20564;42.902;25.336;2024-02-23T10:56:57;96773.94;;;17.48;36.47
34297;BME280;20564;42.902;25.336;2024-02-23T10:59:25;96790.13;;;17.53;34.45
34297;BME280;20564;42.902;25.336;2024-02-23T11:01:54;96788.28;;;17.54;33.95
34297;BME280;20564;42.902;25.336;2024-02-23T11:04:25;96779.72;;;17.58;32.88
34297;BME280;20564;42.902;25.336;2024-02-23T11:06:54;96779.34;;;17.62;33.55
34297;BME280;20564;42.902;25.336;2024-02-23T11:09:23;96778.47;;;17.54;35.53
34297;BME280;20564;42.902;25.336;2024-02-23T11:11:54;96783.34;;;17.51;36.00
34297;BME280;20564;42.902;25.336;2024-02-23T11:14:34;96786.22;;;17.49;35.67
34297;BME280;20564;42.902;25.336;2024-02-23T11:17:03;96784.97;;;17.45;35.20
34297;BME280;20564;42.902;25.336;2024-02-23T11:22:02;96782.66;;;17.64;34.73
34297;BME280;20564;42.902;25.336;2024-02-23T11:24:29;96780.22;;;17.69;34.80
34297;BME280;20564;42.902;25.336;2024-02-23T11:27:00;96778.19;;;17.71;33.88
34297;BME280;20564;42.902;25.336;2024-02-23T11:29:34;96780.53;;;17.52;33.17
34297;BME280;20564;42.902;25.336;2024-02-23T11:32:03;96777.53;;;17.34;33.56
34297;BME280;20564;42.902;25.336;2024-02-23T11:34:30;96769.00;;;17.45;33.77
34297;BME280;20564;42.902;25.336;2024-02-23T11:36:58;96770.16;;;17.64;34.90
34297;BME280;20564;42.902;25.336;2024-02-23T11:39:36;96779.59;;;17.67;34.36
34297;BME280;20564;42.902;25.336;2024-02-23T11:42:04;96767.28;;;17.66;34.55
34297;BME280;20564;42.902;25.336;2024-02-23T11:44:32;96771.19;;;17.63;34.20
34297;BME280;20564;42.902;25.336;2024-02-23T11:46:59;96765.13;;;17.76;34.71
34297;BME280;20564;42.902;25.336;2024-02-23T11:49:30;96754.97;;;17.86;33.71
34297;BME280;20564;42.902;25.336;2024-02-23T11:51:57;96757.78;;;17.78;34.46
34297;BME280;20564;42.902;25.336;2024-02-23T11:54:24;96752.06;;;17.81;33.42
34297;BME280;20564;42.902;25.336;2024-02-23T11:56:51;96739.50;;;17.75;33.01
34297;BME280;20564;42.902;25.336;2024-02-23T11:59:21;96746.16;;;17.86;33.33
34297;BME280;20564;42.902;25.336;2024-02-23T12:01:49;96748.84;;;17.92;33.58
34297;BME280;20564;42.902;25.336;2024-02-23T12:04:16;96755.25;;;18.04;34.32
34297;BME280;20564;42.902;25.336;2024-02-23T12:06:43;96745.56;;;17.90;35.42
34297;BME280;20564;42.902;25.336;2024-02-23T12:09:13;96746.84;;;18.01;36.55
34297;BME280;20564;42.902;25.336;2024-02-23T12:11:40;96739.06;;;18.06;35.04
34297;BME280;20564;42.902;25.336;2024-02-23T12:14:08;96739.06;;;17.99;34.30
34297;BME280;20564;42.902;25.336;2024-02-23T12:16:35;96734.41;;;18.15;33.90
34297;BME280;20564;42.902;25.336;2024-02-23T12:19:04;96731.13;;;18.19;34.97
34297;BME280;20564;42.902;25.336;2024-02-23T12:21:34;96738.78;;;18.29;34.20
34297;BME280;20564;42.902;25.336;2024-02-23T12:24:04;96727.66;;;18.19;34.84
34297;BME280;20564;42.902;25.336;2024-02-23T12:26:35;96732.72;;;18.00;34.86
34297;BME280;20564;42.902;25.336;2024-02-23T12:29:03;96735.84;;;18.11;34.43
34297;BME280;20564;42.902;25.336;2024-02-23T12:31:31;96735.03;;;18.23;33.99
34297;BME280;20564;42.902;25.336;2024-02-23T12:33:58;96736.66;;;18.11;33.76
34297;BME280;20564;42.902;25.336;2024-02-23T12:36:26;96738.66;;;18.09;33.36
34297;BME280;20564;42.902;25.336;2024-02-23T12:38:52;96740.31;;;18.03;34.00
34297;BME280;20564;42.902;25.336;2024-02-23T12:41:19;96739.06;;;17.99;35.06
34297;BME280;20564;42.902;25.336;2024-02-23T12:43:46;96742.72;;;17.98;35.32
34297;BME280;20564;42.902;25.336;2024-02-23T12:46:14;96741.00;;;17.84;35.65
34297;BME280;20564;42.902;25.336;2024-02-23T12:48:41;96739.75;;;17.80;35.34
34297;BME280;20564;42.902;25.336;2024-02-23T12:51:09;96734.44;;;17.80;36.02
34297;BME280;20564;42.902;25.336;2024-02-23T12:53:40;96742.16;;;17.75;35.14
34297;BME280;20564;42.902;25.336;2024-02-23T12:56:10;96741.91;;;17.63;35.11
34297;BME280;20564;42.902;25.336;2024-02-23T12:58:39;96738.59;;;17.33;35.78